Time;durP1;ratioP1;P1;durP2;ratioP2;P2;SDS_P1;SDS_P2;PMS_P1;PMS_P2;Temp;Humidity;BMP_temperature;BMP_pressure;BME280_temperature;BME280_humidity;BME280_pressure;Samples;Min_cycle;Max_cycle;Signal;HPM_P1;HPM_P2
2023/06/22 00:00:30;;;;;;;11.55;5.93;;;22.40;99.90;;;;;;5056980;28;20242;-78
2023/06/22 00:02:55;;;;;;;11.45;5.60;;;22.40;99.90;;;;;;5053482;28;20049;-77
2023/06/22 00:05:21;;;;;;;12.55;5.95;;;22.40;99.90;;;;;;5061712;28;20017;-78
2023/06/22 00:07:46;;;;;;;13.10;6.50;;;22.40;99.90;;;;;;5045820;28;20021;-78
2023/06/22 00:10:12;;;;;;;8.13;5.60;;;22.30;99.90;;;;;;5039765;28;20045;-78
2023/06/22 00:12:38;;;;;;;10.73;5.65;;;22.30;99.90;;;;;;5059488;28;20037;-80
2023/06/22 00:15:04;;;;;;;11.40;5.50;;;22.30;99.90;;;;;;5060981;28;20084;-80
2023/06/22 00:17:29;;;;;;;8.63;6.95;;;22.30;99.90;;;;;;5037682;28;20059;-76
2023/06/22 00:19:55;;;;;;;14.73;8.07;;;22.30;99.90;;;;;;5054477;28;20098;-79
2023/06/22 00:22:28;;;;;;;10.68;7.10;;;22.30;99.90;;;;;;5041741;28;20220;-78
2023/06/22 00:24:55;;;;;;;11.23;7.30;;;22.20;99.90;;;;;;5053590;28;20086;-78
2023/06/22 00:27:21;;;;;;;12.70;5.93;;;22.20;99.90;;;;;;5057128;28;20013;-78
2023/06/22 00:29:46;;;;;;;9.77;5.78;;;22.20;99.90;;;;;;5051894;28;20391;-77
2023/06/22 00:32:12;;;;;;;11.90;6.60;;;22.10;99.90;;;;;;5046727;28;20021;-77
2023/06/22 00:34:37;;;;;;;11.63;6.15;;;22.10;99.90;;;;;;5032317;28;20133;-76
2023/06/22 00:37:03;;;;;;;10.73;7.07;;;22.00;99.90;;;;;;5033720;28;20064;-76
2023/06/22 00:39:29;;;;;;;11.95;6.30;;;22.00;99.90;;;;;;5051395;28;20104;-77
2023/06/22 00:41:55;;;;;;;9.45;6.30;;;22.00;99.90;;;;;;5029303;28;20409;-77
2023/06/22 00:44:20;;;;;;;10.05;6.22;;;21.90;99.90;;;;;;5033775;28;20483;-78
2023/06/22 00:46:46;;;;;;;11.60;6.85;;;22.00;99.90;;;;;;5047234;28;20048;-76
2023/06/22 00:49:11;;;;;;;10.60;5.55;;;21.90;99.90;;;;;;5047518;28;20033;-76
2023/06/22 00:51:38;;;;;;;10.75;6.13;;;21.90;99.90;;;;;;5049610;28;20112;-77
2023/06/22 00:54:05;;;;;;;8.13;5.85;;;21.90;99.90;;;;;;5050429;28;20023;-76
2023/06/22 00:56:32;;;;;;;12.82;6.07;;;21.90;99.90;;;;;;5049043;28;20025;-76
2023/06/22 00:58:59;;;;;;;11.60;6.63;;;21.80;99.90;;;;;;5029978;28;20036;-76
2023/06/22 01:01:25;;;;;;;14.00;6.43;;;21.80;99.90;;;;;;5046152;28;20013;-76
2023/06/22 01:03:51;;;;;;;11.38;5.70;;;21.80;99.90;;;;;;5033949;28;20079;-79
2023/06/22 01:06:26;;;;;;;13.27;6.57;;;21.70;99.90;;;;;;5054337;28;20372;-77
2023/06/22 01:09:02;;;;;;;10.75;6.22;;;21.70;99.90;;;;;;5033109;28;20371;-79
2023/06/22 01:11:38;;;;;;;8.80;5.50;;;21.70;99.90;;;;;;5052118;28;20041;-77
2023/06/22 01:14:10;;;;;;;10.48;5.70;;;21.60;99.90;;;;;;5049695;28;20523;-77
2023/06/22 01:16:40;;;;;;;11.93;6.03;;;21.60;99.90;;;;;;5049525;28;20049;-77
2023/06/22 01:19:41;;;;;;;13.82;6.45;;;21.60;99.90;;;;;;5048155;28;20021;-77
2023/06/22 01:22:12;;;;;;;15.90;6.65;;;21.50;99.90;;;;;;5015560;28;20092;-77
2023/06/22 01:24:54;;;;;;;11.85;6.70;;;21.40;99.90;;;;;;5051681;28;20063;-78
2023/06/22 01:27:53;;;;;;;16.27;6.47;;;21.40;99.90;;;;;;5053745;28;20107;-77
2023/06/22 01:30:19;;;;;;;9.85;5.70;;;21.40;99.90;;;;;;5043612;28;20430;-77
2023/06/22 01:32:45;;;;;;;16.88;6.93;;;21.40;99.90;;;;;;5046816;28;20459;-77
2023/06/22 01:35:12;;;;;;;9.25;6.03;;;21.30;99.90;;;;;;5032945;28;20082;-77
2023/06/22 01:37:38;;;;;;;16.40;5.97;;;21.30;99.90;;;;;;5046950;28;20037;-77
2023/06/22 01:40:08;;;;;;;12.40;6.22;;;21.30;99.90;;;;;;5044065;28;20033;-77
2023/06/22 01:42:34;;;;;;;10.02;6.53;;;21.20;99.90;;;;;;5047003;28;20025;-78
2023/06/22 01:45:02;;;;;;;11.20;6.30;;;21.20;99.90;;;;;;5033951;28;20161;-78
2023/06/22 01:47:28;;;;;;;10.15;6.65;;;21.10;99.90;;;;;;5029975;28;20085;-78
2023/06/22 01:49:54;;;;;;;9.13;5.57;;;21.10;99.90;;;;;;5044677;28;20110;-78
2023/06/22 01:52:21;;;;;;;9.68;5.80;;;21.10;99.90;;;;;;5045111;28;20032;-78
2023/06/22 01:54:46;;;;;;;10.85;5.78;;;21.10;99.90;;;;;;5046426;28;20032;-77
2023/06/22 01:57:12;;;;;;;10.70;6.30;;;21.00;99.90;;;;;;5052911;28;20017;-79
2023/06/22 02:00:00;;;;;;;9.80;6.22;;;21.00;99.90;;;;;;5052612;28;20036;-78
2023/06/22 02:02:31;;;;;;;10.35;6.30;;;21.00;99.90;;;;;;5033028;28;20480;-77
2023/06/22 02:05:06;;;;;;;11.57;6.53;;;20.90;99.90;;;;;;5035785;28;20021;-77
2023/06/22 02:07:37;;;;;;;14.68;6.97;;;20.90;99.90;;;;;;5033977;28;20100;-78
2023/06/22 02:10:05;;;;;;;11.98;6.78;;;20.90;99.90;;;;;;5047733;28;20645;-78
2023/06/22 02:12:33;;;;;;;12.65;7.25;;;20.80;99.90;;;;;;5052196;28;20029;-78
2023/06/22 02:15:00;;;;;;;11.88;7.20;;;20.80;99.90;;;;;;5047701;28;20037;-78
2023/06/22 02:17:26;;;;;;;11.20;7.03;;;20.70;99.90;;;;;;5054173;28;20025;-77
2023/06/22 02:19:52;;;;;;;13.32;6.40;;;20.70;99.90;;;;;;5034231;28;20128;-78
2023/06/22 02:22:17;;;;;;;10.07;6.03;;;20.70;99.90;;;;;;5030214;28;20036;-76
2023/06/22 02:24:43;;;;;;;11.98;6.10;;;20.70;99.90;;;;;;5046204;28;20460;-78
2023/06/22 02:27:10;;;;;;;14.40;6.40;;;20.70;99.90;;;;;;5049786;28;20146;-77
2023/06/22 02:29:36;;;;;;;12.60;6.68;;;20.60;99.90;;;;;;5053535;28;20044;-78
2023/06/22 02:32:02;;;;;;;14.15;6.40;;;20.60;99.90;;;;;;5033213;28;20027;-77
2023/06/22 02:34:27;;;;;;;11.25;6.13;;;20.60;99.90;;;;;;5048428;28;20115;-76
2023/06/22 02:36:53;;;;;;;10.48;6.30;;;20.60;99.90;;;;;;5047195;28;20390;-77
2023/06/22 02:39:23;;;;;;;15.30;7.15;;;20.60;99.90;;;;;;5054293;28;20031;-78
2023/06/22 02:41:50;;;;;;;14.38;6.03;;;20.60;99.90;;;;;;5029174;28;20045;-78
2023/06/22 02:44:16;;;;;;;11.77;6.28;;;20.60;99.90;;;;;;5033379;28;20355;-78
2023/06/22 02:46:41;;;;;;;8.95;5.68;;;20.50;99.90;;;;;;5050137;28;20029;-78
2023/06/22 02:49:07;;;;;;;10.50;6.20;;;20.50;99.90;;;;;;5048698;28;20036;-77
2023/06/22 02:51:34;;;;;;;11.60;6.45;;;20.50;99.90;;;;;;5048915;28;20029;-78
2023/06/22 02:54:00;;;;;;;12.52;6.18;;;20.50;99.90;;;;;;5050888;28;20029;-78
2023/06/22 02:56:26;;;;;;;13.95;6.28;;;20.50;99.90;;;;;;5050461;28;20025;-77
2023/06/22 02:58:52;;;;;;;8.70;5.00;;;20.40;99.90;;;;;;5047152;28;20494;-78
2023/06/22 03:01:23;;;;;;;10.30;6.18;;;20.40;99.90;;;;;;5051042;28;20502;-77
2023/06/22 03:03:49;;;;;;;13.73;5.93;;;20.40;99.90;;;;;;5050334;28;20070;-77
2023/06/22 03:06:15;;;;;;;10.57;5.25;;;20.30;99.90;;;;;;5032225;28;20029;-77
2023/06/22 03:08:41;;;;;;;7.97;5.82;;;20.40;99.90;;;;;;5045664;28;20451;-78
2023/06/22 03:11:07;;;;;;;12.88;5.20;;;20.30;99.90;;;;;;5054215;28;20030;-78
2023/06/22 03:13:33;;;;;;;9.77;5.70;;;20.20;99.90;;;;;;5035694;28;20053;-77
2023/06/22 03:15:58;;;;;;;13.05;6.03;;;20.20;99.90;;;;;;5052269;28;20075;-76
2023/06/22 03:18:24;;;;;;;10.85;6.40;;;20.20;99.90;;;;;;5049910;28;20404;-76
2023/06/22 03:20:50;;;;;;;6.47;5.10;;;20.20;99.90;;;;;;5046743;28;20099;-77
2023/06/22 03:23:15;;;;;;;21.85;6.10;;;20.10;99.90;;;;;;5034909;28;20120;-76
2023/06/22 03:25:44;;;;;;;13.07;5.93;;;20.10;99.90;;;;;;5055027;28;20036;-76
2023/06/22 03:28:10;;;;;;;8.05;5.45;;;20.10;99.90;;;;;;5050216;28;20028;-77
2023/06/22 03:30:36;;;;;;;8.73;5.63;;;20.10;99.90;;;;;;5052849;28;20040;-76
2023/06/22 03:33:01;;;;;;;12.02;5.93;;;20.10;99.90;;;;;;5047509;28;21281;-78
2023/06/22 03:35:27;;;;;;;11.57;5.25;;;20.10;99.90;;;;;;5035870;28;20032;-76
2023/06/22 03:37:53;;;;;;;8.52;5.28;;;20.00;99.90;;;;;;5029406;28;20055;-77
2023/06/22 03:40:19;;;;;;;9.10;5.65;;;20.00;99.90;;;;;;5048622;28;20143;-77
2023/06/22 03:42:45;;;;;;;10.70;5.78;;;20.00;99.90;;;;;;5052223;28;20419;-77
2023/06/22 03:45:11;;;;;;;10.55;5.55;;;20.00;99.90;;;;;;5044011;28;20028;-77
2023/06/22 03:47:37;;;;;;;7.82;5.57;;;20.00;99.90;;;;;;5052061;28;20021;-76
2023/06/22 03:50:03;;;;;;;10.77;5.45;;;20.00;99.90;;;;;;5032799;28;20028;-76
2023/06/22 03:52:29;;;;;;;11.38;5.38;;;20.00;99.90;;;;;;5055741;28;20078;-76
2023/06/22 03:54:55;;;;;;;9.68;5.22;;;20.00;99.90;;;;;;5036532;28;20039;-76
2023/06/22 03:57:21;;;;;;;12.88;6.13;;;20.00;99.90;;;;;;5053585;28;20033;-75
2023/06/22 03:59:46;;;;;;;13.68;5.68;;;20.00;99.90;;;;;;5045883;28;20028;-77
2023/06/22 04:02:12;;;;;;;8.18;5.10;;;20.00;99.90;;;;;;5048745;28;20082;-77
2023/06/22 04:04:39;;;;;;;12.02;5.25;;;20.00;99.90;;;;;;5049905;28;20025;-75
2023/06/22 04:07:04;;;;;;;10.82;5.63;;;20.00;99.90;;;;;;5048543;28;20479;-76
2023/06/22 04:09:30;;;;;;;11.15;5.03;;;20.00;99.90;;;;;;5034649;28;20051;-75
2023/06/22 04:11:56;;;;;;;12.10;5.50;;;20.00;99.90;;;;;;5050281;28;20033;-77
2023/06/22 04:14:21;;;;;;;9.68;5.07;;;20.00;99.90;;;;;;5048865;28;20016;-77
2023/06/22 04:16:47;;;;;;;10.43;4.90;;;20.00;99.90;;;;;;5049396;28;20102;-76
2023/06/22 04:19:16;;;;;;;10.18;5.72;;;20.10;99.90;;;;;;5049085;28;20031;-76
2023/06/22 04:21:43;;;;;;;8.80;5.35;;;20.10;99.90;;;;;;5053731;28;20040;-78
2023/06/22 04:24:08;;;;;;;8.10;4.80;;;20.20;99.90;;;;;;5053381;28;20035;-77
2023/06/22 04:26:36;;;;;;;7.97;5.35;;;20.20;99.90;;;;;;5052199;28;20631;-78
2023/06/22 04:29:05;;;;;;;10.10;5.28;;;20.20;99.90;;;;;;5055602;28;20021;-78
2023/06/22 04:31:36;;;;;;;10.02;5.57;;;20.20;99.90;;;;;;5055730;28;20033;-77
2023/06/22 04:34:06;;;;;;;11.38;5.70;;;20.20;99.90;;;;;;5054639;28;20037;-77
2023/06/22 04:36:39;;;;;;;8.57;5.65;;;20.20;99.90;;;;;;5056153;28;20103;-77
2023/06/22 04:39:06;;;;;;;8.57;5.43;;;20.30;99.90;;;;;;5054848;28;20033;-77
2023/06/22 04:41:41;;;;;;;11.30;4.95;;;20.30;99.90;;;;;;5034709;28;20069;-78
2023/06/22 04:44:13;;;;;;;10.68;5.05;;;20.30;99.90;;;;;;5035570;28;20385;-78
2023/06/22 04:46:40;;;;;;;10.57;5.68;;;20.40;99.90;;;;;;5056593;28;20100;-73
2023/06/22 04:49:11;;;;;;;10.27;5.80;;;20.40;99.90;;;;;;5056200;28;20048;-73
2023/06/22 04:51:41;;;;;;;10.73;6.03;;;20.50;99.90;;;;;;5059170;28;20056;-73
2023/06/22 04:54:08;;;;;;;13.70;6.35;;;20.50;99.90;;;;;;5056616;28;20076;-73
2023/06/22 04:56:34;;;;;;;11.82;6.72;;;20.60;99.90;;;;;;5057226;28;20110;-73
2023/06/22 04:59:00;;;;;;;10.70;7.28;;;20.60;99.90;;;;;;5054279;28;20025;-73
2023/06/22 05:01:25;;;;;;;12.35;6.78;;;20.70;99.90;;;;;;5052257;28;20056;-73
2023/06/22 05:03:55;;;;;;;11.40;7.13;;;20.80;99.90;;;;;;5052983;28;20391;-73
2023/06/22 05:06:24;;;;;;;19.13;7.40;;;20.80;99.90;;;;;;5038173;28;20028;-72
2023/06/22 05:08:58;;;;;;;15.65;7.38;;;20.90;99.90;;;;;;5052741;28;20120;-69
2023/06/22 05:11:27;;;;;;;11.07;7.47;;;20.90;99.90;;;;;;5054119;28;20044;-71
2023/06/22 05:13:54;;;;;;;14.93;7.90;;;21.00;99.90;;;;;;5057863;28;20487;-69
2023/06/22 05:16:26;;;;;;;14.45;7.45;;;21.00;99.90;;;;;;5052511;28;20024;-70
2023/06/22 05:18:56;;;;;;;17.48;7.60;;;21.10;99.90;;;;;;5053472;28;20155;-70
2023/06/22 05:21:23;;;;;;;14.15;8.10;;;21.20;99.90;;;;;;5056173;28;20404;-79
2023/06/22 05:23:50;;;;;;;14.13;7.88;;;21.30;99.90;;;;;;5063723;28;20050;-78
2023/06/22 05:26:15;;;;;;;16.83;6.35;;;21.40;99.90;;;;;;5063661;28;20328;-78
2023/06/22 05:28:41;;;;;;;18.60;7.63;;;21.50;99.90;;;;;;5034807;28;20035;-78
2023/06/22 05:31:06;;;;;;;12.90;7.00;;;21.60;99.90;;;;;;5058908;28;20029;-76
2023/06/22 05:33:33;;;;;;;14.90;7.05;;;21.70;99.90;;;;;;5036825;28;20383;-77
2023/06/22 05:35:58;;;;;;;16.75;7.97;;;21.80;99.90;;;;;;5033886;28;20170;-76
2023/06/22 05:38:24;;;;;;;14.88;7.97;;;22.00;99.90;;;;;;5031051;28;20071;-77
2023/06/22 05:40:49;;;;;;;13.73;7.70;;;22.00;99.90;;;;;;5034544;28;20502;-76
2023/06/22 05:43:15;;;;;;;15.15;8.27;;;22.10;99.90;;;;;;5052874;28;20036;-77
2023/06/22 05:45:41;;;;;;;11.45;6.82;;;22.20;99.90;;;;;;5051109;28;20047;-77
2023/06/22 05:48:07;;;;;;;10.50;7.75;;;22.20;99.90;;;;;;5049294;28;20446;-77
2023/06/22 05:50:32;;;;;;;14.23;7.75;;;22.30;99.90;;;;;;5040487;28;20037;-77
2023/06/22 05:52:58;;;;;;;13.25;8.20;;;22.40;99.90;;;;;;5057571;28;20488;-78
2023/06/22 05:55:23;;;;;;;11.55;7.35;;;22.40;99.90;;;;;;5031807;28;20052;-78
2023/06/22 05:57:49;;;;;;;12.85;7.78;;;22.50;99.90;;;;;;5051702;28;20491;-77
2023/06/22 06:00:15;;;;;;;15.10;7.90;;;22.50;99.90;;;;;;5049537;28;20624;-77
2023/06/22 06:02:43;;;;;;;12.52;8.07;;;22.70;99.90;;;;;;5066070;28;20044;-77
2023/06/22 06:05:14;;;;;;;14.02;7.85;;;22.80;99.90;;;;;;5073099;28;20021;-78
2023/06/22 06:07:41;;;;;;;14.20;7.85;;;22.90;99.90;;;;;;5041993;28;20040;-78
2023/06/22 06:10:07;;;;;;;15.30;7.75;;;22.90;99.90;;;;;;5061059;28;20019;-78
2023/06/22 06:12:33;;;;;;;13.52;8.15;;;22.90;99.90;;;;;;5050632;28;20040;-79
2023/06/22 06:14:59;;;;;;;11.52;7.35;;;22.90;99.90;;;;;;5039118;28;20122;-78
2023/06/22 06:17:24;;;;;;;16.33;7.40;;;23.00;99.90;;;;;;5065403;28;20029;-78
2023/06/22 06:19:50;;;;;;;11.27;7.68;;;23.10;99.90;;;;;;5042892;28;20020;-78
2023/06/22 06:22:15;;;;;;;10.02;6.35;;;23.10;99.90;;;;;;5038968;28;20059;-79
2023/06/22 06:24:41;;;;;;;10.18;7.45;;;23.20;99.90;;;;;;5057438;28;20041;-79
2023/06/22 06:27:07;;;;;;;13.05;7.07;;;23.30;99.90;;;;;;5052680;28;20036;-78
2023/06/22 06:29:33;;;;;;;14.73;7.25;;;23.30;99.90;;;;;;5056535;28;20676;-79
2023/06/22 06:31:59;;;;;;;15.35;7.20;;;23.40;99.90;;;;;;5051227;28;20025;-81
2023/06/22 06:34:24;;;;;;;12.15;7.03;;;23.50;99.90;;;;;;5051896;28;20021;-78
2023/06/22 06:36:50;;;;;;;10.60;6.82;;;23.50;99.90;;;;;;5054498;28;20044;-79
2023/06/22 06:39:16;;;;;;;13.50;7.15;;;23.60;99.90;;;;;;5041479;28;20033;-78
2023/06/22 06:41:42;;;;;;;13.38;7.57;;;23.70;99.90;;;;;;5051718;28;20021;-79
2023/06/22 06:44:07;;;;;;;13.60;7.07;;;23.80;99.90;;;;;;5038767;28;20555;-78
2023/06/22 06:46:33;;;;;;;13.10;7.25;;;23.80;99.90;;;;;;5049324;28;20029;-77
2023/06/22 06:48:58;;;;;;;10.57;6.45;;;23.80;99.90;;;;;;5045280;28;20025;-78
2023/06/22 06:51:24;;;;;;;12.70;7.18;;;23.90;99.90;;;;;;5027430;28;20017;-78
2023/06/22 06:53:49;;;;;;;10.27;6.35;;;24.00;99.90;;;;;;5049995;28;20064;-78
2023/06/22 06:56:16;;;;;;;11.57;6.50;;;24.00;99.90;;;;;;5044019;28;20100;-79
2023/06/22 06:58:42;;;;;;;14.73;7.10;;;24.00;99.90;;;;;;5029438;28;20033;-78
2023/06/22 07:01:08;;;;;;;10.88;5.63;;;24.10;99.90;;;;;;5036656;28;20036;-78
2023/06/22 07:03:34;;;;;;;18.55;7.03;;;24.20;99.90;;;;;;5035373;28;20145;-78
2023/06/22 07:06:00;;;;;;;13.50;6.85;;;24.30;99.90;;;;;;5051313;28;20021;-78
2023/06/22 07:08:25;;;;;;;11.55;6.43;;;24.30;99.90;;;;;;5054086;28;20600;-78
2023/06/22 07:10:52;;;;;;;12.73;5.78;;;24.30;99.90;;;;;;5038123;28;20077;-78
2023/06/22 07:13:18;;;;;;;11.52;5.78;;;24.30;99.90;;;;;;5058351;28;20033;-77
2023/06/22 07:15:43;;;;;;;9.70;6.07;;;24.40;99.90;;;;;;5050755;28;20057;-79
2023/06/22 07:18:09;;;;;;;13.52;6.63;;;24.40;99.90;;;;;;5054059;28;20029;-79
2023/06/22 07:20:35;;;;;;;9.10;5.65;;;24.40;99.90;;;;;;5042453;28;20052;-77
2023/06/22 07:23:01;;;;;;;13.02;6.50;;;24.50;99.90;;;;;;5046288;28;20025;-78
2023/06/22 07:25:27;;;;;;;14.75;6.90;;;24.50;99.90;;;;;;5036304;28;20021;-78
2023/06/22 07:28:04;;;;;;;15.18;6.68;;;24.50;99.90;;;;;;5054933;28;20017;-78
2023/06/22 07:30:31;;;;;;;13.32;6.05;;;24.60;99.90;;;;;;5034358;28;20052;-78
2023/06/22 07:32:58;;;;;;;13.75;5.68;;;24.50;99.90;;;;;;5050157;28;20028;-78
2023/06/22 07:35:24;;;;;;;10.80;6.53;;;24.60;99.90;;;;;;5051042;28;20182;-78
2023/06/22 07:37:50;;;;;;;8.95;6.20;;;24.60;99.90;;;;;;5033003;28;20155;-79
2023/06/22 07:40:16;;;;;;;11.20;6.20;;;24.60;99.90;;;;;;5034125;28;20097;-79
2023/06/22 07:42:41;;;;;;;15.27;7.00;;;24.60;99.90;;;;;;5048515;28;20025;-78
2023/06/22 07:45:08;;;;;;;13.35;5.97;;;24.60;99.90;;;;;;5051088;28;20075;-77
2023/06/22 07:47:35;;;;;;;11.77;6.82;;;24.60;99.90;;;;;;5047736;28;20028;-77
2023/06/22 07:50:01;;;;;;;15.07;6.45;;;24.70;99.90;;;;;;5029851;28;20032;-76
2023/06/22 07:52:28;;;;;;;10.63;6.95;;;24.70;99.90;;;;;;5034359;28;20032;-77
2023/06/22 07:54:53;;;;;;;10.98;6.18;;;24.70;99.90;;;;;;5052121;28;20021;-77
2023/06/22 07:57:20;;;;;;;9.00;5.15;;;24.80;99.90;;;;;;5036282;28;20051;-77
2023/06/22 07:59:46;;;;;;;14.23;6.90;;;24.80;99.90;;;;;;5046578;28;20036;-77
2023/06/22 08:02:12;;;;;;;13.00;6.15;;;24.80;99.90;;;;;;5054464;28;20021;-78
2023/06/22 08:04:37;;;;;;;10.80;5.63;;;24.90;99.90;;;;;;5049583;28;20506;-77
2023/06/22 08:07:04;;;;;;;10.13;5.82;;;25.00;99.90;;;;;;5040335;28;20112;-76
2023/06/22 08:09:31;;;;;;;12.82;6.45;;;25.10;99.90;;;;;;5042831;28;20029;-77
2023/06/22 08:11:56;;;;;;;12.15;6.22;;;25.20;99.90;;;;;;5043065;28;20440;-77
2023/06/22 08:14:26;;;;;;;15.75;5.85;;;25.30;99.90;;;;;;5043529;28;20048;-76
2023/06/22 08:16:52;;;;;;;12.95;5.85;;;25.30;99.90;;;;;;5045987;28;20345;-76
2023/06/22 08:19:17;;;;;;;10.43;5.65;;;25.40;99.90;;;;;;5037046;28;20044;-77
2023/06/22 08:21:43;;;;;;;9.77;5.13;;;25.50;99.90;;;;;;5055157;28;20079;-78
2023/06/22 08:24:09;;;;;;;11.32;5.78;;;25.60;99.90;;;;;;5051546;28;20018;-77
2023/06/22 08:26:37;;;;;;;12.00;5.60;;;25.80;99.90;;;;;;5054762;28;20021;-76
2023/06/22 08:29:03;;;;;;;12.25;5.55;;;25.90;99.90;;;;;;5060323;28;20025;-75
2023/06/22 08:31:30;;;;;;;12.18;5.60;;;26.10;99.90;;;;;;5041650;28;20064;-75
2023/06/22 08:33:55;;;;;;;13.77;5.70;;;26.20;99.90;;;;;;5037458;28;20111;-76
2023/06/22 08:36:21;;;;;;;10.68;5.50;;;26.30;99.90;;;;;;5042607;28;20040;-75
2023/06/22 08:38:51;;;;;;;14.38;6.43;;;26.50;99.90;;;;;;5026686;28;20032;-75
2023/06/22 08:41:17;;;;;;;12.70;5.82;;;26.60;99.90;;;;;;5041809;28;20028;-75
2023/06/22 08:43:44;;;;;;;14.35;5.40;;;26.70;99.90;;;;;;5048554;28;20071;-75
2023/06/22 08:46:10;;;;;;;9.25;5.03;;;26.70;99.90;;;;;;5049312;28;20032;-75
2023/06/22 08:48:36;;;;;;;9.90;5.93;;;26.90;99.90;;;;;;5032372;28;20016;-76
2023/06/22 08:51:03;;;;;;;10.23;5.88;;;26.90;99.90;;;;;;5031485;28;20048;-76
2023/06/22 08:53:28;;;;;;;14.05;5.72;;;27.00;99.90;;;;;;5017670;28;20033;-76
2023/06/22 08:55:54;;;;;;;13.35;5.25;;;27.10;99.70;;;;;;5013246;28;20818;-75
2023/06/22 08:58:21;;;;;;;10.18;5.82;;;27.20;99.70;;;;;;5038661;28;20050;-75
2023/06/22 09:00:47;;;;;;;8.70;5.43;;;27.40;99.50;;;;;;5016022;28;20059;-75
2023/06/22 09:03:13;;;;;;;11.98;5.97;;;27.40;99.40;;;;;;5037200;28;21758;-75
2023/06/22 09:05:39;;;;;;;12.88;5.97;;;27.50;99.20;;;;;;5040325;28;20377;-74
2023/06/22 09:08:04;;;;;;;10.90;6.10;;;27.50;99.00;;;;;;5040238;28;20043;-76
2023/06/22 09:10:30;;;;;;;17.08;5.50;;;27.50;98.90;;;;;;5041398;28;20052;-76
2023/06/22 09:12:57;;;;;;;12.73;5.65;;;27.50;99.00;;;;;;5035743;28;20083;-75
2023/06/22 09:15:23;;;;;;;10.40;5.03;;;27.50;99.20;;;;;;5035009;28;20068;-74
2023/06/22 09:17:48;;;;;;;8.88;4.80;;;27.60;99.10;;;;;;5022827;28;20061;-74
2023/06/22 09:20:15;;;;;;;16.15;6.22;;;27.60;99.10;;;;;;5041108;28;20110;-74
2023/06/22 09:22:41;;;;;;;7.97;5.43;;;27.70;98.90;;;;;;5037732;28;20025;-73
2023/06/22 09:25:07;;;;;;;8.63;6.00;;;27.70;99.00;;;;;;5040295;28;20031;-75
2023/06/22 09:27:33;;;;;;;13.65;6.43;;;27.80;98.60;;;;;;5039303;28;20025;-74
2023/06/22 09:29:58;;;;;;;9.00;5.70;;;27.80;98.60;;;;;;5041646;28;20140;-75
2023/06/22 09:32:25;;;;;;;14.05;6.20;;;27.90;98.70;;;;;;5042063;28;20056;-74
2023/06/22 09:34:51;;;;;;;9.80;5.57;;;28.00;98.50;;;;;;5049689;28;20032;-75
2023/06/22 09:37:17;;;;;;;12.18;6.10;;;28.00;98.40;;;;;;5027580;28;21171;-75
2023/06/22 09:39:42;;;;;;;12.05;5.70;;;28.00;98.20;;;;;;5039450;28;20055;-75
2023/06/22 09:42:08;;;;;;;9.93;6.40;;;28.00;98.10;;;;;;5040685;28;20503;-74
2023/06/22 09:44:33;;;;;;;16.75;6.20;;;28.00;97.90;;;;;;5036608;28;20043;-75
2023/06/22 09:47:00;;;;;;;11.15;5.88;;;27.90;97.90;;;;;;5043254;28;20021;-74
2023/06/22 09:49:25;;;;;;;9.48;5.47;;;28.00;97.90;;;;;;5044286;28;20052;-75
2023/06/22 09:51:52;;;;;;;13.18;6.57;;;28.00;98.00;;;;;;5035755;28;20033;-75
2023/06/22 09:54:17;;;;;;;13.27;6.80;;;28.10;98.10;;;;;;5025105;28;20036;-75
2023/06/22 09:56:43;;;;;;;8.13;5.63;;;28.10;97.90;;;;;;5038867;28;20377;-74
2023/06/22 09:59:09;;;;;;;9.27;5.00;;;28.20;97.70;;;;;;5042346;28;20601;-75
2023/06/22 10:01:35;;;;;;;10.57;5.70;;;28.20;97.90;;;;;;5037621;28;20043;-75
2023/06/22 10:04:01;;;;;;;9.20;5.95;;;28.30;97.60;;;;;;5039657;28;20021;-74
2023/06/22 10:06:27;;;;;;;9.93;5.57;;;28.40;97.70;;;;;;5044075;28;20017;-75
2023/06/22 10:08:52;;;;;;;13.93;6.15;;;28.50;97.60;;;;;;5042118;28;20039;-75
2023/06/22 10:11:18;;;;;;;13.98;6.57;;;28.50;97.50;;;;;;5027816;28;20506;-75
2023/06/22 10:13:44;;;;;;;15.50;6.25;;;28.60;96.90;;;;;;5026919;28;20033;-75
2023/06/22 10:16:09;;;;;;;12.18;6.20;;;28.60;96.50;;;;;;5026456;28;20044;-75
2023/06/22 10:18:35;;;;;;;8.85;5.35;;;28.70;96.50;;;;;;5038731;28;20104;-74
2023/06/22 10:21:00;;;;;;;15.18;5.90;;;28.70;96.30;;;;;;5044101;28;20115;-75
2023/06/22 10:23:26;;;;;;;9.02;6.25;;;28.80;96.10;;;;;;5040800;28;20025;-76
2023/06/22 10:25:51;;;;;;;10.55;5.97;;;28.80;95.90;;;;;;5042882;28;20037;-75
2023/06/22 10:28:17;;;;;;;9.32;5.88;;;28.80;96.00;;;;;;5041864;28;20033;-75
2023/06/22 10:30:43;;;;;;;15.88;6.30;;;28.70;95.70;;;;;;5035149;28;20120;-75
2023/06/22 10:33:09;;;;;;;13.93;6.53;;;28.80;96.00;;;;;;5019780;28;20028;-75
2023/06/22 10:35:37;;;;;;;12.95;6.45;;;28.80;95.80;;;;;;5038987;28;20040;-74
2023/06/22 10:38:03;;;;;;;16.38;6.47;;;28.90;95.50;;;;;;5023335;28;20344;-74
2023/06/22 10:40:29;;;;;;;9.63;6.20;;;29.00;95.70;;;;;;5028722;28;20033;-73
2023/06/22 10:42:55;;;;;;;11.00;5.28;;;29.00;95.60;;;;;;5022041;28;20021;-74
2023/06/22 10:45:20;;;;;;;13.57;6.05;;;29.10;95.60;;;;;;5048021;28;20027;-74
2023/06/22 10:47:46;;;;;;;10.48;6.00;;;29.30;95.50;;;;;;5050084;28;20066;-75
2023/06/22 10:50:12;;;;;;;12.10;6.50;;;29.30;95.30;;;;;;5044658;28;20554;-75
2023/06/22 10:52:38;;;;;;;9.18;5.30;;;29.30;95.20;;;;;;5041134;28;20033;-75
2023/06/22 10:55:04;;;;;;;12.10;6.30;;;29.40;95.20;;;;;;5044815;28;20033;-75
2023/06/22 10:57:29;;;;;;;10.50;6.25;;;29.40;95.10;;;;;;5030750;28;20032;-75
2023/06/22 10:59:55;;;;;;;13.80;5.95;;;29.50;94.90;;;;;;5046041;28;20033;-75
2023/06/22 11:02:21;;;;;;;9.50;5.38;;;29.50;94.80;;;;;;5045247;28;20036;-74
2023/06/22 11:04:47;;;;;;;12.63;6.28;;;29.70;94.70;;;;;;5045233;28;20025;-75
2023/06/22 11:07:13;;;;;;;8.75;4.85;;;29.70;94.60;;;;;;5044671;28;20467;-74
2023/06/22 11:09:39;;;;;;;12.00;5.50;;;29.80;94.50;;;;;;5022160;28;20391;-75
2023/06/22 11:12:05;;;;;;;12.65;6.18;;;29.90;94.30;;;;;;5039914;28;20029;-74
2023/06/22 11:14:31;;;;;;;15.93;6.32;;;30.00;94.10;;;;;;5040196;28;20116;-75
2023/06/22 11:16:57;;;;;;;13.13;6.50;;;30.00;93.80;;;;;;5039920;28;20029;-74
2023/06/22 11:19:23;;;;;;;12.63;6.65;;;30.10;93.90;;;;;;5022995;28;20518;-75
2023/06/22 11:21:48;;;;;;;11.43;5.82;;;30.20;93.80;;;;;;5042625;28;20502;-75
2023/06/22 11:24:15;;;;;;;18.10;6.78;;;30.30;93.50;;;;;;5023615;28;20017;-74
2023/06/22 11:26:41;;;;;;;8.27;5.75;;;30.40;92.70;;;;;;5040161;28;20025;-74
2023/06/22 11:29:07;;;;;;;12.13;6.18;;;30.40;92.70;;;;;;5036315;28;20496;-75
2023/06/22 11:31:34;;;;;;;13.02;6.50;;;30.40;92.80;;;;;;5039869;28;20029;-75
2023/06/22 11:34:00;;;;;;;12.45;5.65;;;30.50;92.60;;;;;;5041603;28;20039;-77
2023/06/22 11:36:26;;;;;;;15.75;7.18;;;30.60;92.90;;;;;;5044329;28;20399;-76
2023/06/22 11:38:52;;;;;;;13.40;5.63;;;30.60;92.80;;;;;;5047548;28;20495;-76
2023/06/22 11:41:17;;;;;;;13.60;6.32;;;30.50;92.60;;;;;;5043684;28;20053;-75
2023/06/22 11:43:44;;;;;;;11.18;5.65;;;30.50;92.40;;;;;;5044442;28;20052;-75
2023/06/22 11:46:09;;;;;;;12.10;6.30;;;30.50;92.20;;;;;;5049086;28;20511;-76
2023/06/22 11:48:36;;;;;;;17.58;6.68;;;30.50;92.40;;;;;;5042143;28;20021;-75
2023/06/22 11:51:02;;;;;;;14.20;6.20;;;30.60;92.60;;;;;;5044659;28;20024;-75
2023/06/22 11:53:28;;;;;;;9.55;5.60;;;30.60;92.30;;;;;;5047946;28;20017;-75
2023/06/22 11:55:54;;;;;;;11.85;5.47;;;30.70;91.90;;;;;;5029814;28;20033;-75
2023/06/22 11:58:20;;;;;;;11.98;6.05;;;30.80;91.70;;;;;;5037505;28;20017;-75
2023/06/22 12:00:46;;;;;;;21.70;7.45;;;30.80;91.50;;;;;;5026122;28;20025;-75
2023/06/22 12:03:12;;;;;;;13.95;6.20;;;31.00;91.20;;;;;;5043310;28;20021;-76
2023/06/22 12:05:38;;;;;;;12.63;6.90;;;31.00;91.30;;;;;;5023351;28;20021;-75
2023/06/22 12:08:04;;;;;;;11.77;6.30;;;31.10;91.10;;;;;;5029939;28;20035;-76
2023/06/22 12:10:30;;;;;;;11.55;5.63;;;31.20;91.00;;;;;;5028258;28;20122;-75
2023/06/22 12:12:57;;;;;;;12.25;6.05;;;31.30;91.00;;;;;;5022925;28;20025;-75
2023/06/22 12:15:23;;;;;;;14.40;6.18;;;31.30;90.90;;;;;;5045593;28;20112;-76
2023/06/22 12:17:49;;;;;;;14.75;5.85;;;31.30;91.00;;;;;;5048977;28;20454;-75
2023/06/22 12:20:14;;;;;;;12.38;6.70;;;31.30;91.30;;;;;;5030262;28;20029;-75
2023/06/22 12:22:41;;;;;;;10.32;6.55;;;31.30;91.50;;;;;;5044562;28;20040;-76
2023/06/22 12:25:10;;;;;;;13.45;6.70;;;31.20;91.40;;;;;;5045173;28;20215;-76
2023/06/22 12:27:36;;;;;;;12.82;6.05;;;31.10;91.30;;;;;;5028046;28;20510;-76
2023/06/22 12:30:02;;;;;;;10.70;6.28;;;31.10;91.40;;;;;;5044528;28;20029;-76
2023/06/22 12:32:28;;;;;;;15.35;5.70;;;31.00;91.70;;;;;;5030211;28;20033;-76
2023/06/22 12:34:53;;;;;;;15.02;6.40;;;30.90;91.90;;;;;;5045017;28;20037;-76